sensor_id;sensor_type;location;lat;lon;timestamp;pressure;altitude;pressure_sealevel;temperature;humidity
929;BME280;451;47.988;7.842;2023-04-24T00:02:01;97566.66;;;12.57;96.11
929;BME280;451;47.988;7.842;2023-04-24T00:11:06;97546.56;;;12.56;95.88
929;BME280;451;47.988;7.842;2023-04-24T00:20:10;97568.06;;;12.66;94.99
929;BME280;451;47.988;7.842;2023-04-24T00:29:15;97565.44;;;12.52;95.86
929;BME280;451;47.988;7.842;2023-04-24T00:38:21;97516.19;;;12.20;95.63
929;BME280;451;47.988;7.842;2023-04-24T00:47:26;97578.19;;;12.69;93.45
929;BME280;451;47.988;7.842;2023-04-24T00:56:30;97578.25;;;12.29;95.99
929;BME280;451;47.988;7.842;2023-04-24T01:05:35;97556.09;;;12.43;95.21
929;BME280;451;47.988;7.842;2023-04-24T01:14:38;97549.84;;;12.31;97.34
929;BME280;451;47.988;7.842;2023-04-24T01:23:42;97537.09;;;12.28;97.22
929;BME280;451;47.988;7.842;2023-04-24T01:32:45;97512.34;;;12.29;97.42
929;BME280;451;47.988;7.842;2023-04-24T01:41:50;97540.53;;;12.22;99.48
929;BME280;451;47.988;7.842;2023-04-24T01:50:55;97544.59;;;12.05;100.00
929;BME280;451;47.988;7.842;2023-04-24T01:59:59;97550.25;;;12.02;100.00
929;BME280;451;47.988;7.842;2023-04-24T02:09:04;97533.81;;;12.00;100.00
929;BME280;451;47.988;7.842;2023-04-24T02:18:08;97547.44;;;12.23;100.00
929;BME280;451;47.988;7.842;2023-04-24T02:27:13;97548.22;;;11.91;100.00
929;BME280;451;47.988;7.842;2023-04-24T02:36:18;97436.66;;;10.98;100.00
929;BME280;451;47.988;7.842;2023-04-24T02:45:21;97553.28;;;11.86;100.00
929;BME280;451;47.988;7.842;2023-04-24T02:54:25;97567.50;;;12.11;100.00
929;BME280;451;47.988;7.842;2023-04-24T03:03:28;97486.16;;;11.62;100.00
929;BME280;451;47.988;7.842;2023-04-24T03:12:33;97566.47;;;12.19;100.00
929;BME280;451;47.988;7.842;2023-04-24T03:21:37;97558.16;;;12.15;100.00
929;BME280;451;47.988;7.842;2023-04-24T03:30:44;97550.03;;;11.84;100.00
929;BME280;451;47.988;7.842;2023-04-24T03:39:48;97572.53;;;11.80;100.00
929;BME280;451;47.988;7.842;2023-04-24T03:48:58;97573.25;;;11.60;100.00
929;BME280;451;47.988;7.842;2023-04-24T03:58:05;97590.72;;;11.75;100.00
929;BME280;451;47.988;7.842;2023-04-24T04:07:10;97612.03;;;11.80;100.00
929;BME280;451;47.988;7.842;2023-04-24T04:16:15;97593.25;;;11.48;100.00
929;BME280;451;47.988;7.842;2023-04-24T04:25:22;97635.13;;;11.43;100.00
929;BME280;451;47.988;7.842;2023-04-24T04:34:25;97642.03;;;11.51;100.00
929;BME280;451;47.988;7.842;2023-04-24T04:43:29;97607.59;;;11.39;100.00
929;BME280;451;47.988;7.842;2023-04-24T04:52:34;97679.19;;;11.69;100.00
929;BME280;451;47.988;7.842;2023-04-24T05:01:53;97663.97;;;11.64;100.00
929;BME280;451;47.988;7.842;2023-04-24T05:10:57;97685.22;;;11.63;100.00
929;BME280;451;47.988;7.842;2023-04-24T05:20:05;97696.78;;;11.68;100.00
929;BME280;451;47.988;7.842;2023-04-24T05:29:09;97679.47;;;11.05;100.00
929;BME280;451;47.988;7.842;2023-04-24T05:38:16;97733.13;;;11.11;100.00
929;BME280;451;47.988;7.842;2023-04-24T05:47:21;97737.56;;;11.10;100.00
929;BME280;451;47.988;7.842;2023-04-24T05:56:28;97782.03;;;11.05;100.00
929;BME280;451;47.988;7.842;2023-04-24T06:05:32;97788.63;;;10.95;100.00
929;BME280;451;47.988;7.842;2023-04-24T06:14:39;97797.56;;;11.49;100.00
929;BME280;451;47.988;7.842;2023-04-24T06:24:03;97741.47;;;11.83;97.27
929;BME280;451;47.988;7.842;2023-04-24T06:33:08;97816.69;;;11.64;95.03
929;BME280;451;47.988;7.842;2023-04-24T06:42:12;97835.25;;;11.56;95.98
929;BME280;451;47.988;7.842;2023-04-24T06:51:20;97843.66;;;11.45;98.38
929;BME280;451;47.988;7.842;2023-04-24T07:00:23;97853.53;;;11.64;97.41
929;BME280;451;47.988;7.842;2023-04-24T07:09:28;97858.38;;;12.23;88.40
929;BME280;451;47.988;7.842;2023-04-24T07:18:31;97888.94;;;12.59;83.11
929;BME280;451;47.988;7.842;2023-04-24T07:27:36;97850.19;;;12.05;81.45
929;BME280;451;47.988;7.842;2023-04-24T07:36:41;97862.47;;;12.32;77.65
929;BME280;451;47.988;7.842;2023-04-24T07:45:45;97883.81;;;12.98;72.45
929;BME280;451;47.988;7.842;2023-04-24T07:54:48;97915.78;;;13.36;65.72
929;BME280;451;47.988;7.842;2023-04-24T08:03:53;97927.72;;;13.25;67.77
929;BME280;451;47.988;7.842;2023-04-24T08:12:57;97930.22;;;13.73;67.02
929;BME280;451;47.988;7.842;2023-04-24T08:22:01;97951.34;;;13.93;66.64
929;BME280;451;47.988;7.842;2023-04-24T08:31:05;97961.88;;;14.12;66.37
929;BME280;451;47.988;7.842;2023-04-24T08:40:13;97966.75;;;14.55;60.33
929;BME280;451;47.988;7.842;2023-04-24T08:49:17;97961.88;;;14.26;54.21
929;BME280;451;47.988;7.842;2023-04-24T08:58:22;97981.00;;;14.14;53.78
929;BME280;451;47.988;7.842;2023-04-24T09:07:30;98027.75;;;13.88;51.25
929;BME280;451;47.988;7.842;2023-04-24T09:16:36;97993.63;;;14.19;51.38
929;BME280;451;47.988;7.842;2023-04-24T09:25:39;97948.84;;;14.44;49.57
929;BME280;451;47.988;7.842;2023-04-24T09:34:47;98001.34;;;14.07;49.81
929;BME280;451;47.988;7.842;2023-04-24T09:43:54;98036.47;;;13.62;52.59
929;BME280;451;47.988;7.842;2023-04-24T09:53:01;98039.59;;;14.44;51.79
929;BME280;451;47.988;7.842;2023-04-24T10:02:16;98042.00;;;14.13;51.37
929;BME280;451;47.988;7.842;2023-04-24T10:11:21;98035.69;;;15.76;46.92
929;BME280;451;47.988;7.842;2023-04-24T10:20:26;98042.44;;;16.03;45.75
929;BME280;451;47.988;7.842;2023-04-24T10:29:32;98019.84;;;16.43;44.65
929;BME280;451;47.988;7.842;2023-04-24T10:38:39;98048.41;;;16.91;45.25
929;BME280;451;47.988;7.842;2023-04-24T10:47:56;98109.50;;;16.10;46.27
929;BME280;451;47.988;7.842;2023-04-24T10:57:26;98069.72;;;15.34;47.07
929;BME280;451;47.988;7.842;2023-04-24T11:06:32;98070.25;;;14.91;49.15
929;BME280;451;47.988;7.842;2023-04-24T11:15:37;98073.34;;;14.23;50.28
929;BME280;451;47.988;7.842;2023-04-24T11:24:49;98085.78;;;14.42;50.18
929;BME280;451;47.988;7.842;2023-04-24T11:34:06;98062.31;;;14.91;49.79
929;BME280;451;47.988;7.842;2023-04-24T11:43:11;98081.28;;;15.46;48.78
929;BME280;451;47.988;7.842;2023-04-24T11:52:17;98066.88;;;16.36;47.95
929;BME280;451;47.988;7.842;2023-04-24T12:01:21;98060.75;;;16.61;47.76
929;BME280;451;47.988;7.842;2023-04-24T12:10:26;98045.50;;;16.00;48.59
929;BME280;451;47.988;7.842;2023-04-24T12:19:31;98052.88;;;15.98;49.48
929;BME280;451;47.988;7.842;2023-04-24T12:28:35;98026.34;;;16.90;47.46
929;BME280;451;47.988;7.842;2023-04-24T12:37:42;98041.31;;;16.17;49.60
929;BME280;451;47.988;7.842;2023-04-24T12:46:45;97938.56;;;14.80;50.32
929;BME280;451;47.988;7.842;2023-04-24T12:55:49;98029.88;;;16.41;48.31
929;BME280;451;47.988;7.842;2023-04-24T13:04:54;98034.09;;;16.49;48.63
929;BME280;451;47.988;7.842;2023-04-24T13:13:59;98007.97;;;16.89;46.87
929;BME280;451;47.988;7.842;2023-04-24T13:23:02;98028.03;;;16.67;47.16
929;BME280;451;47.988;7.842;2023-04-24T13:32:07;98025.47;;;16.53;48.27
929;BME280;451;47.988;7.842;2023-04-24T13:41:10;97896.81;;;16.20;48.05
929;BME280;451;47.988;7.842;2023-04-24T13:50:15;98008.97;;;17.43;47.30
929;BME280;451;47.988;7.842;2023-04-24T13:59:19;97962.16;;;16.57;48.85
929;BME280;451;47.988;7.842;2023-04-24T14:08:24;98001.06;;;16.45;50.04
929;BME280;451;47.988;7.842;2023-04-24T14:17:27;97990.38;;;15.84;51.17
929;BME280;451;47.988;7.842;2023-04-24T14:26:32;98007.22;;;15.64;52.29
929;BME280;451;47.988;7.842;2023-04-24T14:35:35;98005.28;;;14.96;54.85
929;BME280;451;47.988;7.842;2023-04-24T14:44:40;98014.50;;;14.86;54.42
929;BME280;451;47.988;7.842;2023-04-24T14:53:43;98002.00;;;15.00;52.27
929;BME280;451;47.988;7.842;2023-04-24T15:02:49;98004.66;;;15.00;52.47
929;BME280;451;47.988;7.842;2023-04-24T15:11:54;97985.34;;;15.31;53.26
929;BME280;451;47.988;7.842;2023-04-24T15:20:59;97991.09;;;15.28;53.56
929;BME280;451;47.988;7.842;2023-04-24T15:30:05;98014.72;;;15.29;53.17
929;BME280;451;47.988;7.842;2023-04-24T15:39:12;97928.66;;;15.07;50.82
929;BME280;451;47.988;7.842;2023-04-24T15:48:15;97996.84;;;15.56;52.42
929;BME280;451;47.988;7.842;2023-04-24T15:57:23;97992.00;;;15.47;52.71
929;BME280;451;47.988;7.842;2023-04-24T16:06:26;97966.41;;;15.34;54.09
929;BME280;451;47.988;7.842;2023-04-24T16:15:30;98012.03;;;15.36;53.96
929;BME280;451;47.988;7.842;2023-04-24T16:24:34;97944.81;;;14.22;56.04
929;BME280;451;47.988;7.842;2023-04-24T16:33:41;98002.97;;;14.48;58.62
929;BME280;451;47.988;7.842;2023-04-24T16:42:51;97962.69;;;14.26;58.57
929;BME280;451;47.988;7.842;2023-04-24T16:51:56;98010.28;;;14.59;55.90
929;BME280;451;47.988;7.842;2023-04-24T17:00:59;97998.31;;;14.17;55.82
929;BME280;451;47.988;7.842;2023-04-24T17:10:05;98023.69;;;14.64;55.36
929;BME280;451;47.988;7.842;2023-04-24T17:19:10;98007.63;;;14.59;56.32
929;BME280;451;47.988;7.842;2023-04-24T17:28:23;98002.56;;;14.38;56.87
929;BME280;451;47.988;7.842;2023-04-24T17:37:26;97972.69;;;14.04;57.80
929;BME280;451;47.988;7.842;2023-04-24T17:46:31;98007.25;;;13.96;57.37
929;BME280;451;47.988;7.842;2023-04-24T17:55:34;97970.00;;;13.52;58.23
929;BME280;451;47.988;7.842;2023-04-24T18:04:38;98006.41;;;13.63;60.08
929;BME280;451;47.988;7.842;2023-04-24T18:13:43;97955.00;;;12.85;61.47
929;BME280;451;47.988;7.842;2023-04-24T18:22:48;97997.03;;;13.00;61.04
929;BME280;451;47.988;7.842;2023-04-24T18:31:51;98022.75;;;13.25;60.83
929;BME280;451;47.988;7.842;2023-04-24T18:40:56;98026.56;;;12.75;61.50
929;BME280;451;47.988;7.842;2023-04-24T18:49:59;98052.53;;;12.72;62.46
929;BME280;451;47.988;7.842;2023-04-24T18:59:04;98042.13;;;12.98;61.23
929;BME280;451;47.988;7.842;2023-04-24T19:08:11;97997.59;;;12.47;60.67
929;BME280;451;47.988;7.842;2023-04-24T19:17:15;98046.00;;;12.68;61.54
929;BME280;451;47.988;7.842;2023-04-24T19:26:23;98059.72;;;12.57;61.66
929;BME280;451;47.988;7.842;2023-04-24T19:35:32;98051.03;;;12.63;61.37
929;BME280;451;47.988;7.842;2023-04-24T19:44:36;98062.16;;;12.58;61.48
929;BME280;451;47.988;7.842;2023-04-24T19:53:41;98063.84;;;12.66;61.17
929;BME280;451;47.988;7.842;2023-04-24T20:02:44;98058.25;;;12.47;61.35
929;BME280;451;47.988;7.842;2023-04-24T20:11:48;98049.00;;;12.30;63.06
929;BME280;451;47.988;7.842;2023-04-24T20:20:53;98044.97;;;12.34;63.25
929;BME280;451;47.988;7.842;2023-04-24T20:30:00;98049.03;;;12.37;64.18
929;BME280;451;47.988;7.842;2023-04-24T20:39:03;98041.66;;;12.26;65.15
929;BME280;451;47.988;7.842;2023-04-24T20:48:08;98046.00;;;12.12;66.06
929;BME280;451;47.988;7.842;2023-04-24T20:57:17;98035.75;;;12.51;65.79
929;BME280;451;47.988;7.842;2023-04-24T21:06:22;98005.88;;;12.10;65.00
929;BME280;451;47.988;7.842;2023-04-24T21:15:25;97976.19;;;12.01;64.46
929;BME280;451;47.988;7.842;2023-04-24T21:24:30;98025.66;;;12.06;65.99
929;BME280;451;47.988;7.842;2023-04-24T21:33:33;98018.41;;;12.08;66.24
929;BME280;451;47.988;7.842;2023-04-24T21:42:39;98006.75;;;11.96;67.45
929;BME280;451;47.988;7.842;2023-04-24T21:51:42;97996.34;;;11.88;67.29
929;BME280;451;47.988;7.842;2023-04-24T22:00:46;97958.47;;;11.67;68.30
929;BME280;451;47.988;7.842;2023-04-24T22:09:49;98002.59;;;11.65;68.21
929;BME280;451;47.988;7.842;2023-04-24T22:18:53;97988.06;;;11.48;70.71
929;BME280;451;47.988;7.842;2023-04-24T22:27:56;98008.75;;;11.30;69.42
929;BME280;451;47.988;7.842;2023-04-24T22:37:01;97941.72;;;10.75;69.35
929;BME280;451;47.988;7.842;2023-04-24T22:46:04;97915.09;;;11.00;68.27
929;BME280;451;47.988;7.842;2023-04-24T22:55:09;98011.38;;;11.30;68.25
929;BME280;451;47.988;7.842;2023-04-24T23:04:12;97985.00;;;11.09;69.23
929;BME280;451;47.988;7.842;2023-04-24T23:13:17;97981.69;;;11.36;69.15
929;BME280;451;47.988;7.842;2023-04-24T23:22:20;97965.00;;;11.29;69.06
929;BME280;451;47.988;7.842;2023-04-24T23:31:28;97937.81;;;10.86;72.59
929;BME280;451;47.988;7.842;2023-04-24T23:40:31;97950.41;;;10.90;73.45
929;BME280;451;47.988;7.842;2023-04-24T23:49:35;97954.13;;;10.96;75.10
929;BME280;451;47.988;7.842;2023-04-24T23:58:38;97933.31;;;10.80;75.63
